Time;durP1;ratioP1;P1;durP2;ratioP2;P2;SDS_P1;SDS_P2;PMS_P1;PMS_P2;Temp;Humidity;BMP_temperature;BMP_pressure;BME280_temperature;BME280_humidity;BME280_pressure;Samples;Min_cycle;Max_cycle;Signal;HPM_P1;HPM_P2
2023/10/22 00:01:15;;;;;;;4.50;1.20;;;14.00;99.90;;;;;;5094363;28;20095;-87
2023/10/22 00:03:41;;;;;;;7.13;0.90;;;14.00;99.90;;;;;;5077271;28;20413;-88
2023/10/22 00:06:06;;;;;;;7.07;0.88;;;13.90;99.90;;;;;;5093904;28;20118;-87
2023/10/22 00:08:32;;;;;;;6.82;1.42;;;14.00;99.90;;;;;;5094103;28;20122;-87
2023/10/22 00:10:57;;;;;;;3.30;0.60;;;14.00;99.90;;;;;;5077576;28;20459;-87
2023/10/22 00:13:23;;;;;;;5.47;1.10;;;14.00;99.90;;;;;;5094269;28;20040;-87
2023/10/22 00:15:49;;;;;;;7.30;1.67;;;14.00;99.90;;;;;;5076917;28;20628;-87
2023/10/22 00:18:14;;;;;;;10.25;1.80;;;14.10;99.90;;;;;;5077445;28;20039;-87
2023/10/22 00:20:41;;;;;;;1.33;0.60;;;14.10;99.90;;;;;;5077329;28;20098;-88
2023/10/22 00:23:07;;;;;;;5.95;1.40;;;14.10;99.90;;;;;;5076282;28;20095;-88
2023/10/22 00:25:36;;;;;;;5.50;1.40;;;14.10;99.90;;;;;;5085991;27;20027;-88
2023/10/22 00:28:03;;;;;;;8.30;1.55;;;14.20;99.90;;;;;;5086335;28;20027;-88
2023/10/22 00:30:30;;;;;;;3.00;0.75;;;14.20;99.90;;;;;;5103218;27;20063;-87
2023/10/22 00:32:56;;;;;;;4.78;0.93;;;14.20;99.90;;;;;;5100905;27;20069;-88
2023/10/22 00:35:22;;;;;;;6.07;0.88;;;14.10;99.90;;;;;;5088871;27;20410;-87
2023/10/22 00:37:47;;;;;;;6.32;1.67;;;14.20;99.90;;;;;;5104120;28;20502;-87
2023/10/22 00:40:14;;;;;;;6.13;1.60;;;14.20;99.90;;;;;;5088099;28;20118;-87
2023/10/22 00:42:39;;;;;;;3.30;0.63;;;14.20;99.90;;;;;;5104989;27;20433;-87
2023/10/22 00:45:06;;;;;;;7.72;1.58;;;14.20;99.90;;;;;;5104378;27;20110;-88
2023/10/22 00:47:33;;;;;;;7.30;1.58;;;14.20;99.90;;;;;;5105861;27;20114;-87
2023/10/22 00:49:59;;;;;;;5.03;1.10;;;14.20;99.90;;;;;;5086953;27;20486;-88
2023/10/22 00:52:25;;;;;;;8.63;1.80;;;14.20;99.90;;;;;;5088367;27;20099;-88
2023/10/22 00:54:54;;;;;;;8.20;1.60;;;14.20;99.90;;;;;;5086079;28;20039;-88
2023/10/22 00:57:22;;;;;;;6.95;0.88;;;14.20;99.90;;;;;;5086291;28;20047;-88
2023/10/22 00:59:51;;;;;;;7.50;1.90;;;14.20;99.90;;;;;;5103139;27;20039;-88
2023/10/22 01:02:17;;;;;;;5.55;0.88;;;14.10;99.90;;;;;;5101704;28;20035;-88
2023/10/22 01:04:43;;;;;;;7.15;1.70;;;14.10;99.90;;;;;;5087349;28;20117;-88
2023/10/22 01:07:09;;;;;;;4.53;0.75;;;14.10;99.90;;;;;;5102556;28;20138;-88
2023/10/22 01:09:35;;;;;;;3.08;0.90;;;14.10;99.90;;;;;;5077857;28;20407;-88
2023/10/22 01:12:03;;;;;;;4.55;0.80;;;14.10;99.90;;;;;;5093607;28;20046;-88
2023/10/22 01:14:29;;;;;;;5.63;0.90;;;14.00;99.90;;;;;;5076355;28;20126;-89
2023/10/22 01:16:55;;;;;;;6.03;1.02;;;14.00;99.90;;;;;;5076908;28;20139;-89
2023/10/22 01:19:21;;;;;;;4.53;1.10;;;14.00;99.90;;;;;;5093323;28;20040;-88
2023/10/22 01:21:46;;;;;;;7.18;1.15;;;14.00;99.90;;;;;;5095404;28;20043;-88
2023/10/22 01:24:12;;;;;;;6.05;1.52;;;14.00;99.90;;;;;;5097307;28;20440;-88
2023/10/22 01:26:41;;;;;;;6.25;1.15;;;14.00;99.90;;;;;;5080136;28;20039;-88
2023/10/22 01:29:07;;;;;;;5.93;1.30;;;14.00;99.90;;;;;;5080144;28;20065;-88
2023/10/22 01:31:33;;;;;;;4.68;0.88;;;14.00;99.90;;;;;;5080228;28;20084;-88
2023/10/22 01:33:58;;;;;;;5.28;0.68;;;13.90;99.90;;;;;;5079551;28;20137;-88
2023/10/22 01:36:24;;;;;;;3.72;0.80;;;13.80;99.90;;;;;;5097177;28;20051;-88
2023/10/22 01:38:49;;;;;;;4.85;0.70;;;13.70;99.90;;;;;;5097101;28;20041;-88
2023/10/22 01:41:15;;;;;;;6.80;1.42;;;13.60;99.90;;;;;;5096588;28;20038;-88
2023/10/22 01:43:40;;;;;;;5.28;0.85;;;13.60;99.90;;;;;;5079883;28;20099;-88
2023/10/22 01:46:06;;;;;;;3.53;0.65;;;13.50;99.90;;;;;;5079545;28;20111;-88
2023/10/22 01:48:32;;;;;;;1.80;0.60;;;13.40;99.90;;;;;;5080576;28;20579;-88
2023/10/22 01:50:57;;;;;;;3.60;0.73;;;13.30;99.90;;;;;;5080246;28;20063;-87
2023/10/22 01:53:23;;;;;;;3.28;0.73;;;13.20;99.90;;;;;;5080842;28;20421;-88
2023/10/22 01:55:49;;;;;;;4.68;1.10;;;13.10;99.90;;;;;;5080180;28;20039;-87
2023/10/22 01:58:14;;;;;;;7.72;1.55;;;13.10;99.90;;;;;;5079871;28;20126;-88
2023/10/22 02:00:41;;;;;;;3.13;0.63;;;13.10;99.90;;;;;;5096545;28;20039;-88
2023/10/22 02:03:06;;;;;;;1.80;0.50;;;13.10;99.90;;;;;;5079779;28;20059;-88
2023/10/22 02:05:35;;;;;;;1.92;0.75;;;13.10;99.90;;;;;;5096378;28;20516;-88
2023/10/22 02:08:06;;;;;;;7.25;1.55;;;13.10;99.90;;;;;;5080113;28;20032;-88
2023/10/22 02:10:32;;;;;;;2.13;0.55;;;13.00;99.90;;;;;;5079287;28;20032;-88
2023/10/22 02:12:57;;;;;;;3.97;0.90;;;13.00;99.90;;;;;;5096672;28;20042;-88
2023/10/22 02:15:25;;;;;;;4.53;1.20;;;13.00;99.90;;;;;;5079444;28;20044;-88
2023/10/22 02:17:50;;;;;;;6.80;1.30;;;13.00;99.90;;;;;;5079712;28;20047;-88
2023/10/22 02:20:16;;;;;;;2.60;0.57;;;13.10;99.90;;;;;;5096438;28;20468;-88
2023/10/22 02:22:42;;;;;;;2.92;0.77;;;13.10;99.90;;;;;;5079574;28;20067;-87
2023/10/22 02:25:07;;;;;;;0.73;0.20;;;13.00;99.90;;;;;;5096140;28;20035;-87
2023/10/22 02:27:33;;;;;;;5.68;1.45;;;13.00;99.90;;;;;;5100412;28;20487;-88
2023/10/22 02:29:59;;;;;;;7.07;1.20;;;12.90;99.90;;;;;;5096110;28;20042;-88
2023/10/22 02:32:25;;;;;;;2.72;0.70;;;12.90;99.90;;;;;;5095716;28;20127;-87
2023/10/22 02:34:52;;;;;;;8.70;2.25;;;12.90;99.90;;;;;;5104253;28;20130;-87
2023/10/22 02:37:18;;;;;;;4.22;0.47;;;12.90;99.90;;;;;;5080238;28;20048;-87
2023/10/22 02:39:45;;;;;;;2.20;0.60;;;12.90;99.90;;;;;;5099402;28;20067;-86
2023/10/22 02:42:10;;;;;;;1.70;0.50;;;12.90;99.90;;;;;;5082407;28;20074;-87
2023/10/22 02:44:36;;;;;;;2.08;0.75;;;12.90;99.90;;;;;;5079403;28;20466;-87
2023/10/22 02:47:02;;;;;;;2.35;0.47;;;12.90;99.90;;;;;;5086425;28;20031;-87
2023/10/22 02:49:29;;;;;;;3.92;0.85;;;12.90;99.90;;;;;;5086430;28;20032;-87
2023/10/22 02:51:55;;;;;;;9.35;1.65;;;12.90;99.90;;;;;;5083086;28;20038;-87
2023/10/22 02:54:20;;;;;;;5.38;1.00;;;12.90;99.90;;;;;;5077948;28;20031;-88
2023/10/22 02:56:46;;;;;;;2.20;0.73;;;12.90;99.90;;;;;;5095531;28;20038;-87
2023/10/22 02:59:12;;;;;;;1.00;0.40;;;12.90;99.90;;;;;;5078710;28;20043;-87
2023/10/22 03:01:38;;;;;;;2.78;0.90;;;12.90;99.90;;;;;;5095364;28;20036;-87
2023/10/22 03:04:04;;;;;;;3.55;0.70;;;12.90;99.90;;;;;;5077832;28;20048;-87
2023/10/22 03:06:29;;;;;;;2.40;0.50;;;12.90;99.90;;;;;;5094264;28;20111;-87
2023/10/22 03:08:55;;;;;;;3.92;0.60;;;12.90;99.90;;;;;;5094270;28;20094;-87
2023/10/22 03:11:20;;;;;;;3.22;0.70;;;12.90;99.90;;;;;;5077263;28;20032;-88
2023/10/22 03:13:48;;;;;;;1.80;0.60;;;12.90;99.90;;;;;;5094881;28;20042;-88
2023/10/22 03:16:17;;;;;;;3.33;0.90;;;13.00;99.90;;;;;;5094448;28;20040;-88
2023/10/22 03:18:44;;;;;;;2.72;0.70;;;13.00;99.90;;;;;;5077180;28;20131;-87
2023/10/22 03:21:16;;;;;;;2.40;0.88;;;13.00;99.90;;;;;;5077017;28;20043;-87
2023/10/22 03:23:42;;;;;;;6.40;1.33;;;13.00;99.90;;;;;;5094732;28;20067;-88
2023/10/22 03:26:09;;;;;;;3.67;0.77;;;13.10;99.90;;;;;;5094859;28;20405;-87
2023/10/22 03:28:37;;;;;;;0.85;0.43;;;13.10;99.90;;;;;;5077835;28;20032;-87
2023/10/22 03:31:04;;;;;;;1.60;0.55;;;13.00;99.90;;;;;;5078195;28;20036;-87
2023/10/22 03:33:31;;;;;;;3.80;0.77;;;13.00;99.90;;;;;;5095273;28;20452;-88
2023/10/22 03:35:57;;;;;;;6.68;1.40;;;13.00;99.90;;;;;;5094744;28;20092;-87
2023/10/22 03:38:23;;;;;;;5.93;1.50;;;13.00;99.90;;;;;;5095077;28;20092;-87
2023/10/22 03:40:49;;;;;;;3.72;0.82;;;13.10;99.90;;;;;;5077512;28;20044;-87
2023/10/22 03:43:15;;;;;;;1.25;0.40;;;13.00;99.90;;;;;;5077210;28;20046;-87
2023/10/22 03:45:40;;;;;;;1.98;0.90;;;12.90;99.90;;;;;;5077345;28;20032;-87
2023/10/22 03:48:06;;;;;;;7.40;0.98;;;12.90;99.90;;;;;;5077558;28;20498;-87
2023/10/22 03:50:31;;;;;;;5.88;1.27;;;12.90;99.90;;;;;;5077166;28;20434;-87
2023/10/22 03:52:57;;;;;;;3.42;1.08;;;12.90;99.90;;;;;;5094552;28;20035;-88
2023/10/22 03:55:22;;;;;;;1.48;0.50;;;12.90;99.90;;;;;;5077644;28;20043;-87
2023/10/22 03:57:48;;;;;;;1.63;0.50;;;12.80;99.90;;;;;;5077666;28;20118;-87
2023/10/22 04:00:14;;;;;;;3.47;0.80;;;12.80;99.90;;;;;;5094346;28;20089;-87
2023/10/22 04:02:40;;;;;;;6.18;1.55;;;12.80;99.90;;;;;;5093814;28;21739;-87
2023/10/22 04:05:07;;;;;;;1.73;0.60;;;12.80;99.90;;;;;;5094074;28;20036;-87
2023/10/22 04:07:33;;;;;;;1.38;0.77;;;12.80;99.90;;;;;;5076816;28;20035;-87
2023/10/22 04:09:59;;;;;;;5.30;1.50;;;12.80;99.90;;;;;;5094195;28;20104;-87
2023/10/22 04:12:24;;;;;;;1.42;0.68;;;12.80;99.90;;;;;;5094037;28;20127;-86
2023/10/22 04:14:50;;;;;;;2.15;0.90;;;12.80;99.90;;;;;;5076884;28;20122;-87
2023/10/22 04:17:15;;;;;;;1.65;0.88;;;12.70;99.90;;;;;;5093273;28;20566;-86
2023/10/22 04:19:41;;;;;;;4.13;1.13;;;12.70;99.90;;;;;;5094430;28;20038;-87
2023/10/22 04:22:06;;;;;;;5.53;1.38;;;12.70;99.90;;;;;;5094296;28;20044;-87
2023/10/22 04:24:32;;;;;;;1.77;0.73;;;12.70;99.90;;;;;;5093863;28;20031;-87
2023/10/22 04:26:58;;;;;;;3.25;0.93;;;12.70;99.90;;;;;;5094170;28;20040;-87
2023/10/22 04:29:23;;;;;;;2.38;0.65;;;12.70;99.90;;;;;;5078454;28;20035;-87
2023/10/22 04:31:49;;;;;;;2.83;0.80;;;12.70;99.90;;;;;;5076972;28;20044;-87
2023/10/22 04:34:15;;;;;;;1.55;0.55;;;12.70;99.90;;;;;;5093582;28;20482;-87
2023/10/22 04:36:40;;;;;;;2.15;0.82;;;12.60;99.90;;;;;;5076201;28;20042;-87
2023/10/22 04:39:06;;;;;;;3.50;0.93;;;12.60;99.90;;;;;;5093737;28;20042;-87
2023/10/22 04:41:31;;;;;;;1.40;0.82;;;12.60;99.90;;;;;;5076705;28;20074;-88
2023/10/22 04:43:57;;;;;;;6.57;2.00;;;12.60;99.90;;;;;;5076263;28;20044;-86
2023/10/22 04:46:22;;;;;;;0.65;0.38;;;12.60;99.90;;;;;;5076648;28;20042;-87
2023/10/22 04:48:48;;;;;;;3.10;0.80;;;12.70;99.90;;;;;;5093556;28;20097;-87
2023/10/22 04:51:15;;;;;;;3.03;0.88;;;12.60;99.90;;;;;;5076356;28;20046;-87
2023/10/22 04:53:41;;;;;;;3.03;0.85;;;12.60;99.90;;;;;;5093650;28;20039;-88
2023/10/22 04:56:07;;;;;;;6.22;1.80;;;12.60;99.90;;;;;;5092975;28;20039;-87
2023/10/22 04:58:33;;;;;;;1.75;0.57;;;12.60;99.90;;;;;;5076579;28;20035;-87
2023/10/22 05:00:58;;;;;;;2.15;0.90;;;12.60;99.90;;;;;;5093780;28;20047;-87
2023/10/22 05:03:24;;;;;;;1.55;0.68;;;12.60;99.90;;;;;;5076499;28;20092;-87
2023/10/22 05:05:50;;;;;;;0.95;0.52;;;12.60;99.90;;;;;;5093475;28;20042;-87
2023/10/22 05:08:15;;;;;;;1.63;0.43;;;12.60;99.90;;;;;;5093124;28;20080;-87
2023/10/22 05:10:41;;;;;;;1.70;0.93;;;12.60;99.90;;;;;;5092933;28;20076;-86
2023/10/22 05:13:10;;;;;;;1.38;0.57;;;12.60;99.90;;;;;;5076198;28;20044;-87
2023/10/22 05:15:36;;;;;;;3.45;0.80;;;12.50;99.90;;;;;;5076902;28;20042;-87
2023/10/22 05:18:07;;;;;;;1.08;0.50;;;12.50;99.90;;;;;;5075969;28;20070;-87
2023/10/22 05:20:33;;;;;;;3.53;1.05;;;12.50;99.90;;;;;;5076806;28;20048;-87
2023/10/22 05:22:59;;;;;;;1.58;0.60;;;12.50;99.90;;;;;;5076312;28;20080;-87
2023/10/22 05:25:25;;;;;;;5.50;0.77;;;12.50;99.90;;;;;;5076517;28;20043;-87
2023/10/22 05:27:51;;;;;;;4.35;1.70;;;12.50;99.90;;;;;;5093223;28;20122;-87
2023/10/22 05:30:17;;;;;;;0.77;0.38;;;12.50;99.90;;;;;;5093400;28;20112;-87
2023/10/22 05:32:42;;;;;;;0.70;0.47;;;12.50;99.90;;;;;;5075478;28;20094;-87
2023/10/22 05:35:08;;;;;;;1.08;0.60;;;12.50;99.90;;;;;;5076781;28;20470;-87
2023/10/22 05:37:34;;;;;;;1.10;0.55;;;12.50;99.90;;;;;;5092972;28;20093;-87
2023/10/22 05:40:00;;;;;;;1.35;0.68;;;12.50;99.90;;;;;;5076057;28;20122;-87
2023/10/22 05:42:25;;;;;;;1.60;0.60;;;12.50;99.90;;;;;;5075844;28;20054;-87
2023/10/22 05:44:51;;;;;;;1.00;0.50;;;12.50;99.90;;;;;;5075170;28;20122;-87
2023/10/22 05:47:17;;;;;;;0.32;0.28;;;12.50;99.90;;;;;;5075642;28;20024;-87
2023/10/22 05:49:43;;;;;;;3.15;1.08;;;12.50;99.90;;;;;;5076109;28;20534;-88
2023/10/22 05:52:09;;;;;;;3.28;1.05;;;12.50;99.90;;;;;;5093600;28;20035;-88
2023/10/22 05:54:36;;;;;;;1.25;0.52;;;12.60;99.90;;;;;;5075560;28;20403;-87
2023/10/22 05:57:02;;;;;;;0.52;0.40;;;12.60;99.90;;;;;;5092375;28;20513;-88
2023/10/22 05:59:28;;;;;;;0.75;0.43;;;12.50;99.90;;;;;;5075787;28;20031;-87
2023/10/22 06:01:54;;;;;;;0.52;0.43;;;12.50;99.90;;;;;;5075153;28;20046;-87
2023/10/22 06:04:19;;;;;;;0.40;0.32;;;12.50;99.90;;;;;;5076023;28;20040;-87
2023/10/22 06:06:45;;;;;;;1.70;0.75;;;12.40;99.90;;;;;;5099942;28;20035;-88
2023/10/22 06:09:12;;;;;;;1.30;0.60;;;12.40;99.90;;;;;;5096477;28;20460;-87
2023/10/22 06:11:39;;;;;;;0.70;0.40;;;12.40;99.90;;;;;;5079340;28;20031;-88
2023/10/22 06:14:06;;;;;;;0.70;0.30;;;12.30;99.90;;;;;;5095313;28;20047;-88
2023/10/22 06:16:32;;;;;;;2.95;0.80;;;12.30;99.90;;;;;;5095873;28;20528;-87
2023/10/22 06:18:58;;;;;;;1.17;0.68;;;12.30;99.90;;;;;;5079074;28;20043;-87
2023/10/22 06:21:24;;;;;;;1.13;0.70;;;12.20;99.90;;;;;;5096500;28;20036;-87
2023/10/22 06:23:50;;;;;;;1.65;0.68;;;12.20;99.90;;;;;;5096240;28;20048;-87
2023/10/22 06:26:16;;;;;;;3.28;1.15;;;12.20;99.90;;;;;;5079745;28;20039;-88
2023/10/22 06:28:42;;;;;;;5.43;1.45;;;12.10;99.90;;;;;;5079375;28;20031;-88
2023/10/22 06:31:12;;;;;;;6.40;1.83;;;12.10;99.90;;;;;;5078943;28;20042;-88
2023/10/22 06:33:39;;;;;;;5.43;1.83;;;12.10;99.90;;;;;;5102674;27;20043;-88
2023/10/22 06:36:17;;;;;;;2.20;0.90;;;12.10;99.90;;;;;;5088659;28;20055;-88
2023/10/22 06:38:44;;;;;;;3.20;1.08;;;12.10;99.90;;;;;;5081555;28;20047;-88
2023/10/22 06:41:21;;;;;;;5.30;1.88;;;12.10;99.90;;;;;;5087704;28;20050;-88
2023/10/22 06:43:48;;;;;;;2.90;1.30;;;12.10;99.90;;;;;;5095335;28;20494;-87
2023/10/22 06:46:14;;;;;;;8.25;3.28;;;12.10;99.90;;;;;;5078670;28;20038;-88
2023/10/22 06:48:40;;;;;;;8.48;3.10;;;12.10;99.90;;;;;;5087030;28;20036;-88
2023/10/22 06:51:13;;;;;;;3.38;1.65;;;12.20;99.90;;;;;;5078695;28;20040;-88
2023/10/22 06:53:39;;;;;;;4.00;1.45;;;12.10;99.90;;;;;;5079127;28;20093;-88
2023/10/22 06:56:06;;;;;;;3.60;1.25;;;12.10;99.90;;;;;;5095518;28;20070;-88
2023/10/22 06:58:32;;;;;;;1.98;1.02;;;12.00;99.90;;;;;;5095593;28;20526;-88
2023/10/22 07:01:12;;;;;;;6.05;1.42;;;12.00;99.90;;;;;;5095099;28;20035;-88
2023/10/22 07:03:41;;;;;;;5.45;2.05;;;12.00;99.90;;;;;;5079680;28;20042;-89
2023/10/22 07:06:07;;;;;;;4.55;1.75;;;12.00;99.90;;;;;;5089630;27;20039;-87
2023/10/22 07:08:32;;;;;;;5.13;1.40;;;12.00;99.90;;;;;;5079226;28;20440;-88
2023/10/22 07:10:58;;;;;;;3.25;1.20;;;12.00;99.90;;;;;;5082185;27;20436;-88
2023/10/22 07:13:24;;;;;;;3.22;1.30;;;12.00;99.90;;;;;;5086760;27;20031;-88
2023/10/22 07:15:51;;;;;;;8.95;3.70;;;12.00;99.90;;;;;;5097217;28;20048;-87
2023/10/22 07:18:16;;;;;;;8.18;1.67;;;12.10;99.90;;;;;;5093770;28;20119;-88
2023/10/22 07:20:42;;;;;;;5.45;1.52;;;12.10;99.90;;;;;;5094437;28;20118;-88
2023/10/22 07:23:08;;;;;;;3.50;1.63;;;12.10;99.90;;;;;;5077868;28;20043;-87
2023/10/22 07:25:34;;;;;;;7.47;3.55;;;12.00;99.90;;;;;;5081427;28;20027;-87
2023/10/22 07:28:00;;;;;;;4.10;1.20;;;12.10;99.90;;;;;;5092015;28;20085;-88
2023/10/22 07:30:25;;;;;;;2.05;0.85;;;12.10;99.90;;;;;;5095541;28;20043;-88
2023/10/22 07:32:52;;;;;;;7.90;2.20;;;12.10;99.90;;;;;;5095431;28;20099;-88
2023/10/22 07:35:18;;;;;;;4.80;1.80;;;12.10;99.90;;;;;;5095634;28;20188;-88
2023/10/22 07:37:44;;;;;;;5.78;2.20;;;12.10;99.90;;;;;;5078278;28;20106;-88
2023/10/22 07:40:14;;;;;;;5.60;1.95;;;12.10;99.90;;;;;;5094623;28;20122;-88
2023/10/22 07:42:41;;;;;;;6.40;1.80;;;12.20;99.90;;;;;;5077649;28;20414;-87
2023/10/22 07:45:07;;;;;;;6.28;1.45;;;12.20;99.90;;;;;;5078049;28;20042;-87
2023/10/22 07:47:33;;;;;;;7.63;2.13;;;12.20;99.90;;;;;;5077442;28;20066;-88
2023/10/22 07:49:59;;;;;;;10.95;2.22;;;12.20;99.90;;;;;;5086152;28;20390;-88
2023/10/22 07:52:24;;;;;;;6.43;1.83;;;12.20;99.90;;;;;;5096476;28;20126;-88
2023/10/22 07:54:52;;;;;;;7.85;2.33;;;12.20;99.90;;;;;;5079200;28;20051;-88
2023/10/22 07:57:18;;;;;;;6.53;2.78;;;12.20;99.90;;;;;;5095863;28;20053;-88
2023/10/22 07:59:44;;;;;;;5.55;2.58;;;12.30;99.90;;;;;;5095732;28;20413;-89
2023/10/22 08:02:10;;;;;;;7.57;3.00;;;12.30;99.90;;;;;;5083869;28;20502;-88
2023/10/22 08:04:37;;;;;;;6.70;2.28;;;12.30;99.90;;;;;;5086407;28;20040;-88
2023/10/22 08:07:03;;;;;;;5.75;2.13;;;12.30;99.90;;;;;;5083388;27;20471;-87
2023/10/22 08:09:29;;;;;;;8.40;1.77;;;12.30;99.90;;;;;;5102039;27;20027;-87
2023/10/22 08:11:55;;;;;;;4.55;1.90;;;12.30;99.90;;;;;;5085380;27;20391;-88
2023/10/22 08:14:22;;;;;;;10.70;3.13;;;12.40;99.90;;;;;;5100789;28;20116;-87
2023/10/22 08:16:49;;;;;;;6.97;2.63;;;12.40;99.90;;;;;;5082850;27;20035;-87
2023/10/22 08:19:14;;;;;;;7.35;2.70;;;12.40;99.90;;;;;;5100791;27;20537;-87
2023/10/22 08:21:43;;;;;;;6.68;2.55;;;12.40;99.90;;;;;;5102724;27;20035;-87
2023/10/22 08:24:11;;;;;;;11.77;5.97;;;12.40;99.90;;;;;;5080451;27;20036;-87
2023/10/22 08:26:39;;;;;;;9.23;3.03;;;12.50;99.90;;;;;;5086473;27;20122;-86
2023/10/22 08:29:05;;;;;;;10.63;6.07;;;12.50;99.90;;;;;;5100030;27;20522;-87
2023/10/22 08:31:31;;;;;;;10.75;5.90;;;12.60;99.90;;;;;;5084147;28;20035;-86
2023/10/22 08:33:56;;;;;;;6.40;2.05;;;12.70;99.90;;;;;;5084241;27;20122;-87
2023/10/22 08:36:22;;;;;;;5.20;2.03;;;12.60;99.90;;;;;;5083972;27;20054;-87
2023/10/22 08:38:48;;;;;;;7.03;2.17;;;12.60;99.90;;;;;;5085837;27;20414;-87
2023/10/22 08:41:20;;;;;;;7.45;2.30;;;12.60;99.90;;;;;;5100498;27;20092;-87
2023/10/22 08:43:47;;;;;;;10.13;4.80;;;12.60;99.90;;;;;;5083190;27;20058;-87
2023/10/22 08:46:16;;;;;;;8.50;2.13;;;12.70;99.90;;;;;;5095435;28;20039;-87
2023/10/22 08:48:42;;;;;;;4.30;1.95;;;12.70;99.90;;;;;;5077867;28;20037;-87
2023/10/22 08:51:08;;;;;;;4.78;1.40;;;12.70;99.90;;;;;;5084623;27;20031;-87
2023/10/22 08:53:34;;;;;;;6.40;1.98;;;12.70;99.90;;;;;;5078295;28;20068;-87
2023/10/22 08:56:01;;;;;;;5.55;1.98;;;12.80;99.90;;;;;;5101818;27;20077;-87
2023/10/22 08:58:27;;;;;;;6.30;2.08;;;12.90;99.90;;;;;;5083361;27;20042;-88
2023/10/22 09:00:53;;;;;;;3.10;1.48;;;12.90;99.90;;;;;;5101708;28;20049;-88
2023/10/22 09:03:21;;;;;;;4.63;1.77;;;12.90;99.90;;;;;;5083111;28;20110;-88
2023/10/22 09:05:47;;;;;;;5.28;1.65;;;12.90;99.90;;;;;;5085813;28;20035;-87
2023/10/22 09:08:14;;;;;;;7.18;2.22;;;12.90;99.90;;;;;;5100107;28;20032;-88
2023/10/22 09:10:41;;;;;;;3.78;1.63;;;12.90;99.90;;;;;;5084854;28;20036;-87
2023/10/22 09:13:06;;;;;;;5.55;1.85;;;12.80;99.90;;;;;;5083076;28;20031;-87
2023/10/22 09:15:43;;;;;;;4.55;1.85;;;12.90;99.90;;;;;;5100636;28;20039;-87
2023/10/22 09:18:09;;;;;;;4.45;1.70;;;12.90;99.90;;;;;;5097404;28;20035;-87
2023/10/22 09:20:35;;;;;;;6.88;2.08;;;12.90;99.90;;;;;;5093347;28;20169;-87
2023/10/22 09:23:21;;;;;;;4.55;1.75;;;13.00;99.90;;;;;;5093956;28;20134;-87
2023/10/22 09:25:51;;;;;;;6.88;1.92;;;13.00;99.90;;;;;;5076918;28;20557;-87
2023/10/22 09:28:21;;;;;;;6.47;1.98;;;13.00;99.90;;;;;;5085128;28;20073;-88
2023/10/22 09:30:48;;;;;;;8.02;2.28;;;13.00;99.90;;;;;;5103621;28;20074;-88
2023/10/22 09:33:18;;;;;;;10.60;5.00;;;13.00;99.90;;;;;;5086563;28;20148;-87
2023/10/22 09:35:59;;;;;;;5.95;2.00;;;13.20;99.90;;;;;;5079440;28;20157;-88
2023/10/22 09:38:46;;;;;;;7.18;2.25;;;13.30;99.90;;;;;;5085083;28;20063;-87
2023/10/22 09:41:26;;;;;;;6.13;1.92;;;13.40;99.90;;;;;;5094967;28;20046;-88
2023/10/22 09:43:58;;;;;;;5.65;2.17;;;13.40;99.90;;;;;;5099480;27;20126;-89
2023/10/22 09:46:42;;;;;;;4.68;2.03;;;13.50;99.90;;;;;;5091766;27;20405;-88
2023/10/22 09:49:12;;;;;;;9.10;1.92;;;13.50;99.90;;;;;;5080242;28;20376;-88
2023/10/22 09:51:39;;;;;;;6.38;2.22;;;13.60;99.90;;;;;;5085918;28;20406;-88
2023/10/22 09:54:06;;;;;;;5.78;2.13;;;13.60;99.90;;;;;;5088973;28;20537;-88
2023/10/22 09:56:36;;;;;;;9.77;4.20;;;13.60;99.90;;;;;;5097910;28;20498;-88
2023/10/22 09:59:06;;;;;;;6.22;2.40;;;13.70;99.90;;;;;;5080109;28;20514;-87
2023/10/22 10:01:33;;;;;;;7.57;2.72;;;13.80;99.90;;;;;;5085374;28;20047;-88
2023/10/22 10:04:00;;;;;;;7.35;2.88;;;13.80;99.90;;;;;;5084866;27;20047;-87
2023/10/22 10:06:27;;;;;;;7.10;2.45;;;13.70;99.90;;;;;;5080911;28;20032;-88
2023/10/22 10:08:53;;;;;;;8.07;3.00;;;13.60;99.90;;;;;;5079425;28;20036;-87
2023/10/22 10:11:20;;;;;;;11.75;4.88;;;13.60;99.90;;;;;;5079653;28;20036;-87
2023/10/22 10:13:46;;;;;;;7.78;4.20;;;13.60;99.90;;;;;;5096913;28;20043;-88
2023/10/22 10:16:11;;;;;;;10.30;4.43;;;13.70;99.90;;;;;;5086210;28;20130;-87
2023/10/22 10:18:59;;;;;;;7.13;2.50;;;13.80;99.90;;;;;;5096680;28;20122;-88
2023/10/22 10:21:47;;;;;;;4.07;1.90;;;13.80;99.90;;;;;;5096490;28;20062;-88
2023/10/22 10:24:23;;;;;;;7.05;2.83;;;14.00;99.90;;;;;;5095726;28;20098;-87
2023/10/22 10:27:11;;;;;;;6.68;2.47;;;14.00;99.90;;;;;;5096438;28;20082;-88
2023/10/22 10:29:37;;;;;;;16.85;3.63;;;14.00;99.90;;;;;;5078218;28;20139;-88
2023/10/22 10:32:15;;;;;;;8.30;4.75;;;14.00;99.90;;;;;;5096410;28;20114;-88
2023/10/22 10:34:46;;;;;;;8.25;2.58;;;14.00;99.90;;;;;;5096239;28;20046;-88
2023/10/22 10:37:20;;;;;;;8.00;2.28;;;14.00;99.90;;;;;;5096353;28;20040;-88
2023/10/22 10:39:53;;;;;;;10.27;4.53;;;14.00;99.90;;;;;;5096061;28;20594;-88
2023/10/22 10:42:31;;;;;;;9.88;4.82;;;14.00;99.90;;;;;;5103792;28;20040;-87
2023/10/22 10:47:22;;;;;;;9.32;4.40;;;13.90;99.90;;;;;;5095919;28;20050;-87
2023/10/22 10:50:03;;;;;;;8.13;2.83;;;14.00;99.90;;;;;;5103427;28;20040;-87
2023/10/22 10:52:38;;;;;;;6.90;3.08;;;14.10;99.90;;;;;;5079091;28;20046;-87
2023/10/22 10:55:19;;;;;;;9.23;3.05;;;14.10;99.90;;;;;;5078270;28;20039;-88
2023/10/22 10:57:48;;;;;;;6.28;2.40;;;14.10;99.90;;;;;;5105003;27;20127;-87
2023/10/22 11:00:28;;;;;;;8.63;2.95;;;14.10;99.90;;;;;;5083202;28;20078;-87
2023/10/22 11:02:56;;;;;;;5.30;2.30;;;14.10;99.90;;;;;;5095816;28;20047;-88
2023/10/22 11:05:39;;;;;;;6.32;2.88;;;14.10;99.90;;;;;;5103580;28;20036;-88
2023/10/22 11:08:20;;;;;;;6.50;2.17;;;14.10;99.90;;;;;;5096135;28;20110;-87
2023/10/22 11:10:46;;;;;;;6.35;2.45;;;14.10;99.90;;;;;;5078242;28;20525;-88
2023/10/22 11:13:11;;;;;;;9.23;3.90;;;14.20;99.90;;;;;;5078664;27;20047;-88
2023/10/22 11:15:38;;;;;;;6.05;2.20;;;14.20;99.90;;;;;;5087975;27;20035;-87
2023/10/22 11:18:05;;;;;;;8.00;3.67;;;14.30;99.90;;;;;;5089645;27;20619;-88
2023/10/22 11:20:32;;;;;;;9.50;3.55;;;14.40;99.90;;;;;;5106312;27;20070;-87
2023/10/22 11:22:58;;;;;;;6.00;2.00;;;14.40;99.90;;;;;;5087426;28;20110;-88
2023/10/22 11:25:25;;;;;;;5.00;1.73;;;14.30;99.90;;;;;;5089062;27;20553;-88
2023/10/22 11:27:51;;;;;;;11.55;3.92;;;14.20;99.90;;;;;;5088538;27;20443;-88
2023/10/22 11:30:40;;;;;;;5.78;1.98;;;14.30;99.90;;;;;;5100912;27;20506;-88
2023/10/22 11:33:25;;;;;;;4.80;1.60;;;14.20;99.90;;;;;;5104632;27;20039;-87
2023/10/22 11:35:53;;;;;;;5.95;1.60;;;14.20;99.90;;;;;;5105262;28;20039;-87
2023/10/22 11:38:22;;;;;;;6.53;2.65;;;14.10;99.90;;;;;;5087828;27;20076;-88
2023/10/22 11:40:53;;;;;;;6.75;2.40;;;14.20;99.90;;;;;;5084513;27;20087;-88
2023/10/22 11:43:19;;;;;;;4.82;1.50;;;14.20;99.90;;;;;;5082723;27;20034;-88
2023/10/22 11:45:54;;;;;;;6.15;2.03;;;14.10;99.90;;;;;;5085593;27;20031;-88
2023/10/22 11:48:24;;;;;;;5.35;1.83;;;14.00;99.90;;;;;;5084768;27;20064;-89
2023/10/22 11:50:56;;;;;;;6.00;1.65;;;14.00;99.90;;;;;;5101213;27;20084;-88
2023/10/22 11:53:22;;;;;;;5.85;1.80;;;14.00;99.90;;;;;;5081250;27;20062;-89
2023/10/22 11:55:48;;;;;;;4.75;1.10;;;14.00;99.90;;;;;;5081300;27;20519;-88
2023/10/22 11:58:24;;;;;;;3.00;1.08;;;14.00;99.90;;;;;;5086521;27;20519;-89
2023/10/22 12:00:50;;;;;;;8.70;1.13;;;13.90;99.90;;;;;;5103359;27;20574;-89
2023/10/22 12:03:16;;;;;;;6.82;1.95;;;13.80;99.90;;;;;;5086785;27;20047;-88
2023/10/22 12:05:42;;;;;;;7.18;2.00;;;13.80;99.90;;;;;;5101068;28;20126;-89
2023/10/22 12:08:08;;;;;;;2.78;1.20;;;13.80;99.90;;;;;;5078040;28;20040;-89
2023/10/22 12:10:33;;;;;;;6.15;1.38;;;13.70;99.90;;;;;;5077688;28;20028;-89
2023/10/22 12:12:59;;;;;;;3.88;1.00;;;13.70;99.90;;;;;;5082017;28;20039;-89
2023/10/22 12:15:25;;;;;;;7.00;1.50;;;13.60;99.90;;;;;;5102880;28;20093;-89
2023/10/22 12:17:52;;;;;;;5.72;1.10;;;13.60;99.90;;;;;;5098018;28;20043;-89
2023/10/22 12:20:17;;;;;;;8.00;1.45;;;13.50;99.90;;;;;;5079497;28;20061;-89
2023/10/22 12:22:43;;;;;;;4.25;0.90;;;13.50;99.90;;;;;;5095556;28;20044;-89
2023/10/22 12:25:09;;;;;;;3.67;1.15;;;13.40;99.90;;;;;;5079141;28;20043;-89
2023/10/22 12:27:35;;;;;;;6.95;1.33;;;13.40;99.90;;;;;;5077513;28;20073;-90
2023/10/22 12:30:02;;;;;;;5.40;1.00;;;13.30;99.90;;;;;;5077466;28;20080;-89
2023/10/22 12:32:28;;;;;;;1.70;0.60;;;13.30;99.90;;;;;;5093903;28;20526;-89
2023/10/22 12:34:53;;;;;;;1.58;0.60;;;13.20;99.90;;;;;;5077591;28;20036;-89
2023/10/22 12:37:19;;;;;;;3.58;1.48;;;13.10;99.90;;;;;;5076348;28;20035;-89
2023/10/22 12:39:45;;;;;;;1.20;0.50;;;13.10;99.90;;;;;;5081844;27;20042;-89
2023/10/22 12:42:11;;;;;;;3.53;1.00;;;13.00;99.90;;;;;;5098979;27;20076;-89
2023/10/22 12:44:37;;;;;;;1.63;0.65;;;13.00;99.90;;;;;;5100776;27;20097;-89
2023/10/22 12:47:03;;;;;;;2.10;0.73;;;13.00;99.90;;;;;;5102586;28;20391;-89
2023/10/22 12:49:28;;;;;;;6.43;1.30;;;13.00;99.90;;;;;;5082658;27;20023;-89